sensor_id;sensor_type;location;lat;lon;timestamp;P1;durP1;ratioP1;P2;durP2;ratioP2
48795;SDS011;34607;48.520;-1.330;2022-12-10T08:02:43;47.72;;;35.33;;
48795;SDS011;34607;48.520;-1.330;2022-12-10T08:05:11;35.00;;;24.85;;
48795;SDS011;34607;48.520;-1.330;2022-12-10T08:07:38;35.10;;;23.55;;
48795;SDS011;34607;48.520;-1.330;2022-12-10T08:10:05;32.78;;;22.33;;
48795;SDS011;34607;48.520;-1.330;2022-12-10T08:12:33;31.58;;;21.33;;
48795;SDS011;34607;48.520;-1.330;2022-12-10T08:15:00;33.80;;;23.27;;
48795;SDS011;34607;48.520;-1.330;2022-12-10T08:17:29;30.75;;;22.33;;
48795;SDS011;34607;48.520;-1.330;2022-12-10T08:19:58;27.25;;;20.05;;
48795;SDS011;34607;48.520;-1.330;2022-12-10T08:22:25;39.25;;;27.63;;
48795;SDS011;34607;48.520;-1.330;2022-12-10T08:24:52;43.30;;;38.33;;
48795;SDS011;34607;48.520;-1.330;2022-12-10T08:27:19;35.45;;;30.80;;
48795;SDS011;34607;48.520;-1.330;2022-12-10T08:29:46;39.53;;;32.22;;
48795;SDS011;34607;48.520;-1.330;2022-12-10T08:32:13;24.63;;;21.98;;
48795;SDS011;34607;48.520;-1.330;2022-12-10T08:34:40;26.55;;;22.42;;
48795;SDS011;34607;48.520;-1.330;2022-12-10T08:37:09;23.70;;;18.30;;
48795;SDS011;34607;48.520;-1.330;2022-12-10T08:39:37;23.15;;;17.23;;
48795;SDS011;34607;48.520;-1.330;2022-12-10T08:42:05;23.67;;;18.15;;
48795;SDS011;34607;48.520;-1.330;2022-12-10T08:44:32;23.75;;;18.45;;
48795;SDS011;34607;48.520;-1.330;2022-12-10T08:46:59;30.65;;;23.30;;
48795;SDS011;34607;48.520;-1.330;2022-12-10T08:49:27;24.38;;;19.85;;
48795;SDS011;34607;48.520;-1.330;2022-12-10T08:51:54;24.05;;;19.10;;
48795;SDS011;34607;48.520;-1.330;2022-12-10T08:54:22;25.98;;;15.52;;
48795;SDS011;34607;48.520;-1.330;2022-12-10T08:56:50;23.25;;;17.50;;
48795;SDS011;34607;48.520;-1.330;2022-12-10T08:59:17;22.63;;;17.73;;
48795;SDS011;34607;48.520;-1.330;2022-12-10T09:01:44;32.47;;;20.05;;
48795;SDS011;34607;48.520;-1.330;2022-12-10T09:04:11;30.73;;;21.15;;
48795;SDS011;34607;48.520;-1.330;2022-12-10T09:06:40;28.25;;;18.65;;
48795;SDS011;34607;48.520;-1.330;2022-12-10T09:09:08;22.80;;;17.23;;
48795;SDS011;34607;48.520;-1.330;2022-12-10T09:11:36;26.33;;;21.40;;
48795;SDS011;34607;48.520;-1.330;2022-12-10T09:14:03;26.15;;;19.92;;
48795;SDS011;34607;48.520;-1.330;2022-12-10T09:16:31;31.13;;;19.83;;
48795;SDS011;34607;48.520;-1.330;2022-12-10T09:18:59;24.15;;;16.92;;
48795;SDS011;34607;48.520;-1.330;2022-12-10T09:21:27;20.95;;;16.55;;
48795;SDS011;34607;48.520;-1.330;2022-12-10T09:23:55;35.25;;;26.75;;
48795;SDS011;34607;48.520;-1.330;2022-12-10T09:26:23;24.60;;;20.80;;
48795;SDS011;34607;48.520;-1.330;2022-12-10T09:28:52;48.90;;;32.17;;
48795;SDS011;34607;48.520;-1.330;2022-12-10T09:31:20;28.30;;;21.35;;
48795;SDS011;34607;48.520;-1.330;2022-12-10T09:33:48;33.90;;;23.48;;
48795;SDS011;34607;48.520;-1.330;2022-12-10T09:36:16;40.22;;;30.10;;
48795;SDS011;34607;48.520;-1.330;2022-12-10T09:38:44;37.15;;;25.13;;
48795;SDS011;34607;48.520;-1.330;2022-12-10T09:41:16;31.63;;;24.63;;
48795;SDS011;34607;48.520;-1.330;2022-12-10T09:43:59;44.20;;;30.20;;
48795;SDS011;34607;48.520;-1.330;2022-12-10T09:46:35;30.73;;;24.15;;
48795;SDS011;34607;48.520;-1.330;2022-12-10T09:49:13;31.00;;;21.10;;
48795;SDS011;34607;48.520;-1.330;2022-12-10T09:51:48;20.85;;;15.00;;
48795;SDS011;34607;48.520;-1.330;2022-12-10T09:54:22;31.65;;;21.35;;
48795;SDS011;34607;48.520;-1.330;2022-12-10T09:56:52;27.60;;;20.42;;
48795;SDS011;34607;48.520;-1.330;2022-12-10T09:59:23;26.73;;;19.30;;
48795;SDS011;34607;48.520;-1.330;2022-12-10T10:01:59;20.45;;;15.88;;
48795;SDS011;34607;48.520;-1.330;2022-12-10T10:04:46;31.05;;;20.65;;
48795;SDS011;34607;48.520;-1.330;2022-12-10T10:07:16;29.60;;;19.65;;
48795;SDS011;34607;48.520;-1.330;2022-12-10T10:09:47;25.98;;;18.40;;
48795;SDS011;34607;48.520;-1.330;2022-12-10T10:12:15;27.65;;;20.30;;
48795;SDS011;34607;48.520;-1.330;2022-12-10T10:14:44;32.05;;;20.33;;
48795;SDS011;34607;48.520;-1.330;2022-12-10T10:17:12;32.13;;;21.45;;
48795;SDS011;34607;48.520;-1.330;2022-12-10T10:22:12;25.42;;;18.60;;
48795;SDS011;34607;48.520;-1.330;2022-12-10T10:24:40;33.65;;;22.10;;
48795;SDS011;34607;48.520;-1.330;2022-12-10T10:27:12;24.27;;;18.60;;
48795;SDS011;34607;48.520;-1.330;2022-12-10T10:29:41;25.77;;;18.80;;
48795;SDS011;34607;48.520;-1.330;2022-12-10T10:32:14;29.30;;;19.90;;
48795;SDS011;34607;48.520;-1.330;2022-12-10T10:34:42;19.77;;;16.00;;
48795;SDS011;34607;48.520;-1.330;2022-12-10T10:37:18;26.52;;;19.70;;
48795;SDS011;34607;48.520;-1.330;2022-12-10T10:39:48;25.15;;;18.83;;
48795;SDS011;34607;48.520;-1.330;2022-12-10T10:42:21;23.20;;;18.50;;
48795;SDS011;34607;48.520;-1.330;2022-12-10T10:45:03;23.75;;;16.77;;
48795;SDS011;34607;48.520;-1.330;2022-12-10T10:47:33;21.30;;;16.75;;
48795;SDS011;34607;48.520;-1.330;2022-12-10T10:50:02;23.17;;;18.20;;
48795;SDS011;34607;48.520;-1.330;2022-12-10T10:52:35;30.02;;;20.52;;
48795;SDS011;34607;48.520;-1.330;2022-12-10T10:55:04;21.25;;;16.42;;
48795;SDS011;34607;48.520;-1.330;2022-12-10T10:57:33;26.75;;;19.88;;
48795;SDS011;34607;48.520;-1.330;2022-12-10T11:00:04;18.95;;;14.35;;
48795;SDS011;34607;48.520;-1.330;2022-12-10T11:02:34;21.85;;;16.17;;
48795;SDS011;34607;48.520;-1.330;2022-12-10T11:05:04;20.75;;;15.75;;
48795;SDS011;34607;48.520;-1.330;2022-12-10T11:07:35;18.02;;;13.90;;
48795;SDS011;34607;48.520;-1.330;2022-12-10T11:10:03;18.02;;;14.32;;
48795;SDS011;34607;48.520;-1.330;2022-12-10T11:12:43;20.20;;;17.20;;
48795;SDS011;34607;48.520;-1.330;2022-12-10T11:15:28;20.52;;;12.70;;
48795;SDS011;34607;48.520;-1.330;2022-12-10T11:17:59;21.98;;;13.80;;
48795;SDS011;34607;48.520;-1.330;2022-12-10T11:20:27;14.75;;;11.95;;
48795;SDS011;34607;48.520;-1.330;2022-12-10T11:22:57;12.93;;;10.90;;
48795;SDS011;34607;48.520;-1.330;2022-12-10T11:25:30;17.00;;;12.88;;
48795;SDS011;34607;48.520;-1.330;2022-12-10T11:28:12;18.15;;;12.93;;
48795;SDS011;34607;48.520;-1.330;2022-12-10T11:31:03;18.50;;;13.77;;
48795;SDS011;34607;48.520;-1.330;2022-12-10T11:33:46;23.83;;;20.13;;
48795;SDS011;34607;48.520;-1.330;2022-12-10T11:36:25;15.32;;;13.13;;
48795;SDS011;34607;48.520;-1.330;2022-12-10T11:39:02;18.38;;;13.80;;
48795;SDS011;34607;48.520;-1.330;2022-12-10T11:41:45;15.38;;;12.20;;
48795;SDS011;34607;48.520;-1.330;2022-12-10T11:44:22;26.90;;;21.45;;
48795;SDS011;34607;48.520;-1.330;2022-12-10T11:46:59;15.18;;;11.95;;
48795;SDS011;34607;48.520;-1.330;2022-12-10T11:49:42;15.38;;;13.18;;
48795;SDS011;34607;48.520;-1.330;2022-12-10T11:52:26;13.38;;;11.55;;
48795;SDS011;34607;48.520;-1.330;2022-12-10T11:55:05;15.13;;;12.63;;
48795;SDS011;34607;48.520;-1.330;2022-12-10T11:57:41;10.75;;;9.38;;
48795;SDS011;34607;48.520;-1.330;2022-12-10T12:00:17;13.43;;;8.77;;
48795;SDS011;34607;48.520;-1.330;2022-12-10T12:02:58;12.43;;;9.95;;
48795;SDS011;34607;48.520;-1.330;2022-12-10T12:05:57;10.35;;;8.20;;
48795;SDS011;34607;48.520;-1.330;2022-12-10T12:08:35;7.60;;;6.78;;
48795;SDS011;34607;48.520;-1.330;2022-12-10T12:11:15;9.40;;;8.40;;
48795;SDS011;34607;48.520;-1.330;2022-12-10T12:13:54;11.30;;;7.75;;
48795;SDS011;34607;48.520;-1.330;2022-12-10T12:16:28;12.18;;;11.02;;
48795;SDS011;34607;48.520;-1.330;2022-12-10T12:19:03;10.52;;;8.63;;
48795;SDS011;34607;48.520;-1.330;2022-12-10T12:21:36;11.68;;;10.68;;
48795;SDS011;34607;48.520;-1.330;2022-12-10T12:24:05;10.57;;;7.78;;
48795;SDS011;34607;48.520;-1.330;2022-12-10T12:26:40;7.57;;;5.85;;
48795;SDS011;34607;48.520;-1.330;2022-12-10T12:29:13;11.23;;;9.00;;
48795;SDS011;34607;48.520;-1.330;2022-12-10T12:31:45;16.35;;;7.75;;
48795;SDS011;34607;48.520;-1.330;2022-12-10T12:34:22;7.07;;;6.30;;
48795;SDS011;34607;48.520;-1.330;2022-12-10T12:36:55;7.80;;;6.13;;
48795;SDS011;34607;48.520;-1.330;2022-12-10T12:39:23;11.10;;;6.32;;
48795;SDS011;34607;48.520;-1.330;2022-12-10T12:41:59;8.40;;;6.97;;
48795;SDS011;34607;48.520;-1.330;2022-12-10T12:44:33;10.68;;;6.82;;
48795;SDS011;34607;48.520;-1.330;2022-12-10T12:47:19;10.25;;;7.28;;
48795;SDS011;34607;48.520;-1.330;2022-12-10T12:49:57;9.40;;;6.53;;
48795;SDS011;34607;48.520;-1.330;2022-12-10T12:52:29;10.18;;;7.72;;
48795;SDS011;34607;48.520;-1.330;2022-12-10T12:55:03;8.60;;;6.00;;
48795;SDS011;34607;48.520;-1.330;2022-12-10T12:57:43;8.27;;;6.38;;
48795;SDS011;34607;48.520;-1.330;2022-12-10T13:00:14;9.23;;;5.68;;
48795;SDS011;34607;48.520;-1.330;2022-12-10T13:02:46;9.43;;;6.75;;
48795;SDS011;34607;48.520;-1.330;2022-12-10T13:05:27;9.25;;;6.05;;
48795;SDS011;34607;48.520;-1.330;2022-12-10T13:08:20;6.82;;;5.30;;
48795;SDS011;34607;48.520;-1.330;2022-12-10T13:13:23;7.22;;;5.05;;
48795;SDS011;34607;48.520;-1.330;2022-12-10T13:15:52;7.15;;;5.43;;
48795;SDS011;34607;48.520;-1.330;2022-12-10T13:18:22;7.88;;;5.07;;
48795;SDS011;34607;48.520;-1.330;2022-12-10T13:21:25;6.93;;;5.03;;
48795;SDS011;34607;48.520;-1.330;2022-12-10T13:24:07;7.72;;;4.95;;
48795;SDS011;34607;48.520;-1.330;2022-12-10T13:26:36;6.80;;;5.50;;
48795;SDS011;34607;48.520;-1.330;2022-12-10T13:29:27;10.65;;;6.90;;
48795;SDS011;34607;48.520;-1.330;2022-12-10T13:31:56;7.68;;;5.82;;
48795;SDS011;34607;48.520;-1.330;2022-12-10T13:34:32;8.57;;;6.43;;
48795;SDS011;34607;48.520;-1.330;2022-12-10T13:37:04;7.75;;;6.90;;
48795;SDS011;34607;48.520;-1.330;2022-12-10T13:39:45;7.18;;;5.85;;
48795;SDS011;34607;48.520;-1.330;2022-12-10T13:45:25;11.00;;;6.47;;
48795;SDS011;34607;48.520;-1.330;2022-12-10T13:47:55;7.75;;;6.28;;
48795;SDS011;34607;48.520;-1.330;2022-12-10T13:50:44;9.13;;;6.80;;
48795;SDS011;34607;48.520;-1.330;2022-12-10T13:53:18;9.25;;;6.07;;
48795;SDS011;34607;48.520;-1.330;2022-12-10T13:55:55;8.73;;;6.13;;
48795;SDS011;34607;48.520;-1.330;2022-12-10T13:58:40;8.90;;;6.63;;
48795;SDS011;34607;48.520;-1.330;2022-12-10T14:01:15;11.65;;;7.20;;
48795;SDS011;34607;48.520;-1.330;2022-12-10T14:03:51;8.05;;;5.90;;
48795;SDS011;34607;48.520;-1.330;2022-12-10T14:06:28;8.55;;;6.70;;
48795;SDS011;34607;48.520;-1.330;2022-12-10T14:09:02;7.10;;;5.80;;
48795;SDS011;34607;48.520;-1.330;2022-12-10T14:11:32;8.65;;;6.63;;
48795;SDS011;34607;48.520;-1.330;2022-12-10T14:14:04;9.00;;;6.53;;
48795;SDS011;34607;48.520;-1.330;2022-12-10T14:16:33;7.57;;;6.68;;
48795;SDS011;34607;48.520;-1.330;2022-12-10T14:19:03;7.78;;;6.88;;
48795;SDS011;34607;48.520;-1.330;2022-12-10T14:21:33;9.38;;;7.80;;
48795;SDS011;34607;48.520;-1.330;2022-12-10T14:24:03;11.45;;;8.57;;
48795;SDS011;34607;48.520;-1.330;2022-12-10T14:26:31;9.23;;;7.78;;
48795;SDS011;34607;48.520;-1.330;2022-12-10T14:29:00;9.80;;;8.15;;
48795;SDS011;34607;48.520;-1.330;2022-12-10T14:31:29;11.98;;;8.90;;
48795;SDS011;34607;48.520;-1.330;2022-12-10T14:33:59;9.20;;;7.22;;
48795;SDS011;34607;48.520;-1.330;2022-12-10T14:36:30;12.07;;;8.60;;
48795;SDS011;34607;48.520;-1.330;2022-12-10T14:38:59;13.48;;;8.55;;
48795;SDS011;34607;48.520;-1.330;2022-12-10T14:41:29;13.98;;;9.48;;
48795;SDS011;34607;48.520;-1.330;2022-12-10T14:44:01;11.18;;;9.10;;
48795;SDS011;34607;48.520;-1.330;2022-12-10T14:46:30;11.75;;;9.25;;
48795;SDS011;34607;48.520;-1.330;2022-12-10T14:48:58;12.68;;;10.82;;
48795;SDS011;34607;48.520;-1.330;2022-12-10T14:51:26;14.85;;;12.00;;
48795;SDS011;34607;48.520;-1.330;2022-12-10T14:54:00;16.05;;;11.63;;
48795;SDS011;34607;48.520;-1.330;2022-12-10T14:56:29;17.83;;;12.35;;
48795;SDS011;34607;48.520;-1.330;2022-12-10T14:59:01;18.90;;;13.93;;
48795;SDS011;34607;48.520;-1.330;2022-12-10T15:01:32;17.55;;;13.27;;
48795;SDS011;34607;48.520;-1.330;2022-12-10T15:04:03;14.23;;;12.02;;
48795;SDS011;34607;48.520;-1.330;2022-12-10T15:06:33;16.90;;;13.25;;
48795;SDS011;34607;48.520;-1.330;2022-12-10T15:09:02;19.48;;;14.32;;
48795;SDS011;34607;48.520;-1.330;2022-12-10T15:11:33;16.80;;;14.13;;
48795;SDS011;34607;48.520;-1.330;2022-12-10T15:14:01;18.02;;;15.32;;
48795;SDS011;34607;48.520;-1.330;2022-12-10T15:16:31;17.55;;;13.85;;
48795;SDS011;34607;48.520;-1.330;2022-12-10T15:19:09;24.45;;;15.48;;
48795;SDS011;34607;48.520;-1.330;2022-12-10T15:21:43;22.08;;;13.93;;
48795;SDS011;34607;48.520;-1.330;2022-12-10T15:24:13;23.23;;;17.17;;
48795;SDS011;34607;48.520;-1.330;2022-12-10T15:26:46;20.75;;;15.95;;
48795;SDS011;34607;48.520;-1.330;2022-12-10T15:29:15;20.13;;;13.43;;
48795;SDS011;34607;48.520;-1.330;2022-12-10T15:32:00;19.38;;;14.88;;
48795;SDS011;34607;48.520;-1.330;2022-12-10T15:34:32;21.35;;;17.08;;
48795;SDS011;34607;48.520;-1.330;2022-12-10T15:37:05;29.65;;;21.50;;
48795;SDS011;34607;48.520;-1.330;2022-12-10T15:39:44;22.98;;;18.48;;
48795;SDS011;34607;48.520;-1.330;2022-12-10T15:42:28;20.63;;;15.80;;
48795;SDS011;34607;48.520;-1.330;2022-12-10T15:47:26;20.33;;;15.25;;
48795;SDS011;34607;48.520;-1.330;2022-12-10T15:49:55;22.55;;;15.32;;
48795;SDS011;34607;48.520;-1.330;2022-12-10T15:52:23;22.08;;;14.30;;
48795;SDS011;34607;48.520;-1.330;2022-12-10T15:54:52;17.77;;;14.45;;
48795;SDS011;34607;48.520;-1.330;2022-12-10T15:57:21;18.13;;;14.45;;
48795;SDS011;34607;48.520;-1.330;2022-12-10T15:59:51;15.85;;;12.65;;
48795;SDS011;34607;48.520;-1.330;2022-12-10T16:02:24;17.60;;;13.63;;
48795;SDS011;34607;48.520;-1.330;2022-12-10T16:05:02;18.15;;;14.55;;
48795;SDS011;34607;48.520;-1.330;2022-12-10T16:07:36;17.98;;;14.75;;
48795;SDS011;34607;48.520;-1.330;2022-12-10T16:10:04;31.58;;;23.65;;
48795;SDS011;34607;48.520;-1.330;2022-12-10T16:12:32;42.42;;;30.90;;
48795;SDS011;34607;48.520;-1.330;2022-12-10T16:15:02;33.25;;;22.90;;
48795;SDS011;34607;48.520;-1.330;2022-12-10T16:17:31;30.45;;;23.40;;
48795;SDS011;34607;48.520;-1.330;2022-12-10T16:19:58;22.25;;;17.05;;
48795;SDS011;34607;48.520;-1.330;2022-12-10T16:22:27;20.50;;;14.52;;
48795;SDS011;34607;48.520;-1.330;2022-12-10T16:24:54;17.98;;;14.35;;
48795;SDS011;34607;48.520;-1.330;2022-12-10T16:27:21;21.52;;;14.18;;
48795;SDS011;34607;48.520;-1.330;2022-12-10T16:29:48;25.48;;;18.77;;
48795;SDS011;34607;48.520;-1.330;2022-12-10T16:32:16;29.77;;;23.20;;
48795;SDS011;34607;48.520;-1.330;2022-12-10T16:34:44;23.50;;;16.70;;
48795;SDS011;34607;48.520;-1.330;2022-12-10T16:37:12;25.13;;;18.95;;
48795;SDS011;34607;48.520;-1.330;2022-12-10T16:39:39;44.20;;;34.47;;
48795;SDS011;34607;48.520;-1.330;2022-12-10T16:42:08;39.95;;;29.40;;
48795;SDS011;34607;48.520;-1.330;2022-12-10T16:44:36;20.67;;;17.52;;
48795;SDS011;34607;48.520;-1.330;2022-12-10T16:47:08;18.90;;;14.80;;
48795;SDS011;34607;48.520;-1.330;2022-12-10T16:49:38;23.80;;;17.35;;
48795;SDS011;34607;48.520;-1.330;2022-12-10T16:52:05;18.70;;;15.88;;
48795;SDS011;34607;48.520;-1.330;2022-12-10T16:54:33;24.55;;;16.20;;
48795;SDS011;34607;48.520;-1.330;2022-12-10T16:57:00;21.52;;;14.48;;
48795;SDS011;34607;48.520;-1.330;2022-12-10T16:59:27;20.92;;;15.90;;
48795;SDS011;34607;48.520;-1.330;2022-12-10T17:01:54;26.52;;;19.38;;
48795;SDS011;34607;48.520;-1.330;2022-12-10T17:04:21;30.90;;;21.95;;
48795;SDS011;34607;48.520;-1.330;2022-12-10T17:06:49;37.17;;;26.80;;
48795;SDS011;34607;48.520;-1.330;2022-12-10T17:09:16;45.78;;;35.55;;
48795;SDS011;34607;48.520;-1.330;2022-12-10T17:11:43;50.13;;;39.95;;
48795;SDS011;34607;48.520;-1.330;2022-12-10T17:14:13;39.70;;;31.60;;
48795;SDS011;34607;48.520;-1.330;2022-12-10T17:16:46;29.10;;;21.77;;
48795;SDS011;34607;48.520;-1.330;2022-12-10T17:19:13;25.88;;;19.50;;
48795;SDS011;34607;48.520;-1.330;2022-12-10T17:21:40;23.48;;;19.08;;
48795;SDS011;34607;48.520;-1.330;2022-12-10T17:24:09;24.60;;;20.95;;
48795;SDS011;34607;48.520;-1.330;2022-12-10T17:26:37;23.27;;;18.48;;
48795;SDS011;34607;48.520;-1.330;2022-12-10T17:29:11;22.55;;;18.67;;
48795;SDS011;34607;48.520;-1.330;2022-12-10T17:31:40;22.25;;;17.38;;
48795;SDS011;34607;48.520;-1.330;2022-12-10T17:34:08;23.15;;;18.70;;
48795;SDS011;34607;48.520;-1.330;2022-12-10T17:36:36;19.38;;;16.25;;
48795;SDS011;34607;48.520;-1.330;2022-12-10T17:39:04;23.08;;;16.95;;
48795;SDS011;34607;48.520;-1.330;2022-12-10T17:41:32;20.30;;;15.68;;
48795;SDS011;34607;48.520;-1.330;2022-12-10T17:43:59;20.10;;;15.43;;
48795;SDS011;34607;48.520;-1.330;2022-12-10T17:46:26;23.48;;;17.02;;
48795;SDS011;34607;48.520;-1.330;2022-12-10T17:48:53;20.20;;;16.17;;
48795;SDS011;34607;48.520;-1.330;2022-12-10T17:51:21;27.95;;;18.95;;
48795;SDS011;34607;48.520;-1.330;2022-12-10T17:53:48;27.92;;;19.52;;
48795;SDS011;34607;48.520;-1.330;2022-12-10T17:56:16;19.92;;;15.57;;
48795;SDS011;34607;48.520;-1.330;2022-12-10T17:58:46;28.83;;;17.42;;
48795;SDS011;34607;48.520;-1.330;2022-12-10T18:01:14;21.88;;;16.70;;
48795;SDS011;34607;48.520;-1.330;2022-12-10T18:03:41;23.60;;;15.73;;
48795;SDS011;34607;48.520;-1.330;2022-12-10T18:06:10;22.00;;;15.30;;
48795;SDS011;34607;48.520;-1.330;2022-12-10T18:08:40;20.73;;;16.70;;
48795;SDS011;34607;48.520;-1.330;2022-12-10T18:11:08;19.98;;;15.75;;
48795;SDS011;34607;48.520;-1.330;2022-12-10T18:13:37;19.63;;;15.80;;
48795;SDS011;34607;48.520;-1.330;2022-12-10T18:16:08;20.02;;;16.13;;
48795;SDS011;34607;48.520;-1.330;2022-12-10T18:18:37;19.88;;;16.90;;
48795;SDS011;34607;48.520;-1.330;2022-12-10T18:21:05;21.85;;;17.70;;
48795;SDS011;34607;48.520;-1.330;2022-12-10T18:23:32;22.67;;;16.17;;
48795;SDS011;34607;48.520;-1.330;2022-12-10T18:26:00;25.40;;;16.55;;
48795;SDS011;34607;48.520;-1.330;2022-12-10T18:28:45;22.73;;;16.95;;
48795;SDS011;34607;48.520;-1.330;2022-12-10T18:31:20;24.08;;;16.67;;
48795;SDS011;34607;48.520;-1.330;2022-12-10T18:33:51;21.48;;;16.52;;
48795;SDS011;34607;48.520;-1.330;2022-12-10T18:36:23;23.27;;;15.98;;
48795;SDS011;34607;48.520;-1.330;2022-12-10T18:38:53;22.58;;;17.55;;
48795;SDS011;34607;48.520;-1.330;2022-12-10T18:41:22;22.42;;;17.58;;
48795;SDS011;34607;48.520;-1.330;2022-12-10T18:43:49;21.88;;;17.48;;
48795;SDS011;34607;48.520;-1.330;2022-12-10T18:46:19;24.13;;;19.20;;
48795;SDS011;34607;48.520;-1.330;2022-12-10T18:48:48;25.35;;;18.38;;
48795;SDS011;34607;48.520;-1.330;2022-12-10T18:51:15;22.20;;;17.25;;
48795;SDS011;34607;48.520;-1.330;2022-12-10T18:53:43;21.70;;;16.88;;
48795;SDS011;34607;48.520;-1.330;2022-12-10T18:56:11;24.20;;;17.73;;
48795;SDS011;34607;48.520;-1.330;2022-12-10T18:58:40;28.98;;;20.45;;
48795;SDS011;34607;48.520;-1.330;2022-12-10T19:01:09;22.50;;;17.70;;
48795;SDS011;34607;48.520;-1.330;2022-12-10T19:03:39;22.75;;;17.92;;
48795;SDS011;34607;48.520;-1.330;2022-12-10T19:06:08;22.75;;;17.25;;
48795;SDS011;34607;48.520;-1.330;2022-12-10T19:08:39;25.27;;;17.10;;
48795;SDS011;34607;48.520;-1.330;2022-12-10T19:11:06;26.75;;;17.08;;
48795;SDS011;34607;48.520;-1.330;2022-12-10T19:13:34;26.50;;;18.25;;
48795;SDS011;34607;48.520;-1.330;2022-12-10T19:16:01;26.75;;;18.70;;
48795;SDS011;34607;48.520;-1.330;2022-12-10T19:18:29;49.08;;;33.90;;
48795;SDS011;34607;48.520;-1.330;2022-12-10T19:20:57;31.83;;;23.10;;
48795;SDS011;34607;48.520;-1.330;2022-12-10T19:23:25;25.38;;;19.38;;
48795;SDS011;34607;48.520;-1.330;2022-12-10T19:25:52;28.55;;;20.45;;
48795;SDS011;34607;48.520;-1.330;2022-12-10T19:28:19;25.25;;;18.95;;
48795;SDS011;34607;48.520;-1.330;2022-12-10T19:30:46;22.95;;;17.73;;
48795;SDS011;34607;48.520;-1.330;2022-12-10T19:33:14;22.20;;;17.05;;
48795;SDS011;34607;48.520;-1.330;2022-12-10T19:35:41;22.45;;;16.50;;
48795;SDS011;34607;48.520;-1.330;2022-12-10T19:38:11;22.85;;;19.45;;
48795;SDS011;34607;48.520;-1.330;2022-12-10T19:40:39;20.88;;;15.80;;
48795;SDS011;34607;48.520;-1.330;2022-12-10T19:43:06;19.80;;;16.15;;
48795;SDS011;34607;48.520;-1.330;2022-12-10T19:45:34;19.33;;;15.20;;
48795;SDS011;34607;48.520;-1.330;2022-12-10T19:48:01;19.45;;;14.65;;
48795;SDS011;34607;48.520;-1.330;2022-12-10T19:50:29;22.30;;;15.93;;
48795;SDS011;34607;48.520;-1.330;2022-12-10T19:53:00;24.02;;;15.90;;
48795;SDS011;34607;48.520;-1.330;2022-12-10T19:55:28;21.63;;;16.25;;
48795;SDS011;34607;48.520;-1.330;2022-12-10T19:57:56;20.85;;;15.77;;
48795;SDS011;34607;48.520;-1.330;2022-12-10T20:00:24;23.27;;;15.05;;
48795;SDS011;34607;48.520;-1.330;2022-12-10T20:02:52;20.95;;;14.57;;
48795;SDS011;34607;48.520;-1.330;2022-12-10T20:05:20;21.90;;;16.05;;
48795;SDS011;34607;48.520;-1.330;2022-12-10T20:07:47;22.48;;;15.23;;
48795;SDS011;34607;48.520;-1.330;2022-12-10T20:10:16;23.98;;;15.85;;
48795;SDS011;34607;48.520;-1.330;2022-12-10T20:12:47;24.90;;;15.68;;
48795;SDS011;34607;48.520;-1.330;2022-12-10T20:15:15;24.73;;;17.60;;
48795;SDS011;34607;48.520;-1.330;2022-12-10T20:17:43;20.80;;;16.40;;
48795;SDS011;34607;48.520;-1.330;2022-12-10T20:20:17;23.27;;;17.13;;
48795;SDS011;34607;48.520;-1.330;2022-12-10T20:22:46;19.08;;;15.93;;
48795;SDS011;34607;48.520;-1.330;2022-12-10T20:25:14;24.85;;;16.67;;
48795;SDS011;34607;48.520;-1.330;2022-12-10T20:27:42;24.73;;;17.67;;
48795;SDS011;34607;48.520;-1.330;2022-12-10T20:30:13;25.88;;;18.85;;
48795;SDS011;34607;48.520;-1.330;2022-12-10T20:32:43;24.40;;;18.88;;
48795;SDS011;34607;48.520;-1.330;2022-12-10T20:35:11;27.77;;;19.65;;
48795;SDS011;34607;48.520;-1.330;2022-12-10T20:37:39;29.23;;;19.40;;
48795;SDS011;34607;48.520;-1.330;2022-12-10T20:40:08;29.08;;;19.67;;
48795;SDS011;34607;48.520;-1.330;2022-12-10T20:42:39;28.55;;;20.70;;
48795;SDS011;34607;48.520;-1.330;2022-12-10T20:45:07;31.50;;;21.70;;
48795;SDS011;34607;48.520;-1.330;2022-12-10T20:47:35;26.13;;;21.10;;
48795;SDS011;34607;48.520;-1.330;2022-12-10T20:50:03;31.23;;;21.40;;
48795;SDS011;34607;48.520;-1.330;2022-12-10T20:52:33;30.00;;;19.90;;
48795;SDS011;34607;48.520;-1.330;2022-12-10T20:55:01;27.83;;;20.38;;
48795;SDS011;34607;48.520;-1.330;2022-12-10T20:57:29;29.05;;;20.02;;
48795;SDS011;34607;48.520;-1.330;2022-12-10T20:59:56;33.75;;;24.85;;
48795;SDS011;34607;48.520;-1.330;2022-12-10T21:02:24;28.65;;;21.38;;
48795;SDS011;34607;48.520;-1.330;2022-12-10T21:04:52;34.20;;;23.25;;
48795;SDS011;34607;48.520;-1.330;2022-12-10T21:07:19;28.77;;;21.42;;
48795;SDS011;34607;48.520;-1.330;2022-12-10T21:09:48;27.90;;;21.85;;
48795;SDS011;34607;48.520;-1.330;2022-12-10T21:12:15;34.45;;;26.25;;
48795;SDS011;34607;48.520;-1.330;2022-12-10T21:14:42;41.78;;;26.90;;
48795;SDS011;34607;48.520;-1.330;2022-12-10T21:17:10;37.35;;;25.45;;
48795;SDS011;34607;48.520;-1.330;2022-12-10T21:19:37;37.85;;;27.05;;
48795;SDS011;34607;48.520;-1.330;2022-12-10T21:22:07;33.20;;;24.48;;
48795;SDS011;34607;48.520;-1.330;2022-12-10T21:24:35;34.15;;;25.88;;
48795;SDS011;34607;48.520;-1.330;2022-12-10T21:27:03;30.27;;;21.10;;
48795;SDS011;34607;48.520;-1.330;2022-12-10T21:29:30;30.98;;;22.38;;
48795;SDS011;34607;48.520;-1.330;2022-12-10T21:31:57;26.45;;;21.35;;
48795;SDS011;34607;48.520;-1.330;2022-12-10T21:34:24;29.30;;;20.92;;
48795;SDS011;34607;48.520;-1.330;2022-12-10T21:36:51;30.88;;;20.83;;
48795;SDS011;34607;48.520;-1.330;2022-12-10T21:39:20;27.77;;;21.33;;
48795;SDS011;34607;48.520;-1.330;2022-12-10T21:41:47;30.15;;;21.83;;
48795;SDS011;34607;48.520;-1.330;2022-12-10T21:44:31;32.83;;;20.35;;
48795;SDS011;34607;48.520;-1.330;2022-12-10T21:46:59;29.60;;;21.40;;
48795;SDS011;34607;48.520;-1.330;2022-12-10T21:49:26;26.85;;;20.63;;
48795;SDS011;34607;48.520;-1.330;2022-12-10T21:51:53;32.00;;;22.98;;
48795;SDS011;34607;48.520;-1.330;2022-12-10T21:54:21;26.55;;;19.30;;
48795;SDS011;34607;48.520;-1.330;2022-12-10T21:56:48;28.90;;;21.73;;
48795;SDS011;34607;48.520;-1.330;2022-12-10T21:59:16;31.75;;;22.95;;
48795;SDS011;34607;48.520;-1.330;2022-12-10T22:01:43;29.92;;;20.75;;
48795;SDS011;34607;48.520;-1.330;2022-12-10T22:04:10;31.75;;;20.85;;
48795;SDS011;34607;48.520;-1.330;2022-12-10T22:06:37;26.00;;;21.63;;
48795;SDS011;34607;48.520;-1.330;2022-12-10T22:09:04;28.05;;;19.73;;
48795;SDS011;34607;48.520;-1.330;2022-12-10T22:11:32;27.25;;;20.70;;
48795;SDS011;34607;48.520;-1.330;2022-12-10T22:14:00;28.00;;;20.92;;
48795;SDS011;34607;48.520;-1.330;2022-12-10T22:16:27;29.13;;;20.33;;
